createdAt,value
2023-01-20T08:52:12.770Z,100.00
2023-01-20T08:54:41.044Z,100.00
2023-01-20T08:57:08.673Z,100.00
2023-01-20T08:59:36.056Z,100.00
2023-01-20T09:02:03.446Z,100.00
2023-01-20T09:05:37.156Z,100.00
2023-01-20T09:08:05.432Z,100.00
2023-01-20T09:10:34.197Z,100.00
2023-01-20T09:13:01.582Z,100.00
2023-01-20T09:15:28.976Z,100.00
2023-01-20T09:17:56.449Z,100.00
2023-01-20T09:20:24.681Z,100.00
2023-01-20T09:22:52.781Z,100.00
2023-01-20T09:25:20.188Z,100.00
2023-01-20T09:27:47.646Z,100.00
2023-01-20T09:30:15.316Z,100.00
2023-01-20T09:32:42.733Z,100.00
2023-01-20T09:35:10.677Z,100.00
2023-01-20T09:37:56.628Z,100.00
2023-01-20T09:41:02.592Z,100.00
2023-01-20T09:44:16.778Z,100.00
2023-01-20T09:47:31.321Z,100.00
2023-01-20T09:50:54.855Z,100.00
2023-01-20T09:54:05.789Z,100.00
2023-01-20T09:56:46.603Z,100.00
2023-01-20T09:59:26.881Z,100.00
2023-01-20T10:02:13.795Z,100.00
2023-01-20T10:05:19.456Z,100.00
2023-01-20T10:08:02.287Z,100.00
2023-01-20T10:11:10.029Z,100.00
2023-01-20T10:13:56.013Z,100.00
2023-01-20T10:16:50.111Z,100.00
2023-01-20T10:19:49.981Z,100.00
2023-01-20T10:22:50.334Z,100.00
2023-01-20T10:25:35.917Z,100.00
2023-01-20T10:28:30.885Z,100.00
2023-01-20T10:31:03.195Z,100.00
2023-01-20T10:33:42.749Z,100.00
2023-01-20T10:36:24.638Z,100.00
2023-01-20T10:39:31.323Z,100.00
2023-01-20T10:42:13.798Z,100.00
2023-01-20T10:44:41.710Z,100.00
2023-01-20T10:48:12.263Z,100.00
2023-01-20T10:51:26.827Z,100.00
2023-01-20T10:54:31.929Z,100.00
2023-01-20T10:57:01.978Z,100.00
2023-01-20T10:59:40.995Z,100.00
2023-01-20T11:02:29.054Z,100.00
2023-01-20T11:05:29.637Z,100.00
2023-01-20T11:08:00.176Z,100.00
2023-01-20T11:10:32.557Z,100.00
2023-01-20T11:13:03.439Z,100.00
2023-01-20T11:15:45.388Z,100.00
2023-01-20T11:18:15.591Z,100.00
2023-01-20T11:21:02.429Z,100.00
2023-01-20T11:23:38.206Z,100.00
2023-01-20T11:26:35.882Z,100.00
2023-01-20T11:29:12.136Z,100.00
2023-01-20T11:31:59.556Z,100.00
2023-01-20T11:34:35.129Z,100.00
2023-01-20T11:37:05.295Z,100.00
2023-01-20T11:39:43.885Z,100.00
2023-01-20T11:42:24.875Z,100.00
2023-01-20T11:45:20.385Z,100.00
2023-01-20T11:48:17.818Z,100.00
2023-01-20T11:51:00.892Z,100.00
2023-01-20T11:53:34.107Z,100.00
2023-01-20T11:56:24.783Z,100.00
2023-01-20T11:59:03.237Z,99.55
2023-01-20T12:02:01.573Z,96.91
2023-01-20T12:05:22.954Z,93.28
2023-01-20T12:07:52.593Z,91.73
2023-01-20T12:10:39.977Z,92.42
2023-01-20T12:13:55.774Z,90.57
2023-01-20T12:16:26.412Z,88.96
2023-01-20T12:19:03.155Z,88.30
2023-01-20T12:21:41.069Z,87.36
2023-01-20T12:24:49.868Z,83.17
2023-01-20T12:27:27.651Z,82.59
2023-01-20T12:30:05.166Z,82.67
2023-01-20T12:32:33.310Z,82.37
2023-01-20T12:35:01.142Z,82.09
2023-01-20T12:37:56.653Z,82.48
2023-01-20T12:40:52.594Z,81.08
2023-01-20T12:44:11.307Z,82.38
2023-01-20T12:47:08.345Z,84.56
2023-01-20T12:50:26.231Z,83.78
2023-01-20T12:53:52.177Z,83.19
2023-01-20T12:56:48.862Z,85.21
2023-01-20T12:59:49.791Z,84.53
2023-01-20T13:02:18.570Z,83.96
2023-01-20T13:06:06.026Z,88.71
2023-01-20T13:10:02.873Z,85.85
2023-01-20T13:13:08.650Z,84.17
2023-01-20T13:15:46.431Z,82.62
2023-01-20T13:19:03.497Z,83.93
2023-01-20T13:21:33.715Z,82.09
2023-01-20T13:24:04.568Z,83.63
2023-01-20T13:26:32.880Z,82.16
2023-01-20T13:29:00.702Z,81.63
2023-01-20T13:31:37.179Z,83.68
2023-01-20T13:34:22.600Z,84.48
2023-01-20T13:37:09.567Z,83.26
2023-01-20T13:39:46.852Z,82.69
2023-01-20T13:42:38.091Z,81.57
2023-01-20T13:45:14.871Z,81.68
2023-01-20T13:48:05.860Z,80.91
2023-01-20T13:50:40.063Z,80.04
2023-01-20T13:53:21.636Z,80.98
2023-01-20T13:55:48.783Z,78.34
2023-01-20T13:58:25.741Z,78.59
2023-01-20T14:01:05.351Z,78.01
2023-01-20T14:03:37.429Z,77.18
2023-01-20T14:06:13.410Z,76.75
2023-01-20T14:08:51.257Z,76.45
2023-01-20T14:11:26.377Z,76.51
2023-01-20T14:14:07.834Z,76.35
2023-01-20T14:16:41.316Z,76.15
2023-01-20T14:19:32.738Z,77.44
2023-01-20T14:22:34.072Z,77.73
2023-01-20T14:25:02.441Z,77.64
2023-01-20T14:27:36.850Z,78.26
2023-01-20T14:30:25.161Z,77.78
2023-01-20T14:32:53.834Z,79.33
2023-01-20T14:35:35.011Z,78.02
2023-01-20T14:38:02.902Z,78.73
2023-01-20T14:40:35.884Z,78.59
2023-01-20T14:43:23.584Z,80.66
2023-01-20T14:45:52.696Z,81.79
2023-01-20T14:48:33.279Z,81.79
2023-01-20T14:51:04.103Z,81.55
2023-01-20T14:53:31.769Z,81.13
2023-01-20T14:56:24.199Z,81.07
2023-01-20T14:58:58.679Z,82.51
2023-01-20T15:01:26.770Z,81.62
2023-01-20T15:04:02.016Z,81.13
2023-01-20T15:06:29.350Z,81.36
2023-01-20T15:09:06.501Z,81.36
2023-01-20T15:11:35.675Z,81.05
2023-01-20T15:14:05.830Z,81.57
2023-01-20T15:16:49.429Z,82.42
2023-01-20T15:19:19.769Z,81.65
2023-01-20T15:22:10.549Z,80.79
2023-01-20T15:24:39.887Z,81.48
2023-01-20T15:27:33.661Z,82.08
2023-01-20T15:30:24.200Z,80.12
2023-01-20T15:32:53.681Z,77.02
2023-01-20T15:35:26.063Z,76.32
2023-01-20T15:37:55.164Z,77.58
2023-01-20T15:40:25.377Z,79.05
2023-01-20T15:42:53.522Z,79.51
2023-01-20T15:45:21.235Z,80.53
2023-01-20T15:47:49.737Z,82.94
2023-01-20T15:50:24.245Z,83.67
2023-01-20T15:52:51.604Z,85.42
2023-01-20T15:55:20.199Z,86.38
2023-01-20T15:57:52.267Z,85.89
2023-01-20T16:00:25.356Z,85.79
2023-01-20T16:02:53.019Z,84.28
2023-01-20T16:05:21.122Z,84.21
2023-01-20T16:07:50.264Z,84.54
2023-01-20T16:10:19.896Z,85.98
2023-01-20T16:12:48.025Z,87.10
2023-01-20T16:15:18.259Z,87.40
2023-01-20T16:17:46.166Z,88.78
2023-01-20T16:20:24.995Z,89.97
2023-01-20T16:22:53.202Z,90.41
2023-01-20T16:25:21.455Z,91.76
2023-01-20T16:27:48.857Z,93.71
2023-01-20T16:30:21.167Z,93.75
2023-01-20T16:32:48.818Z,96.72
2023-01-20T16:35:20.115Z,95.37
2023-01-20T16:37:48.211Z,97.23
2023-01-20T16:40:22.053Z,98.69
2023-01-20T16:42:49.505Z,100.00
2023-01-20T16:45:28.172Z,100.00
2023-01-20T16:47:57.111Z,100.00
2023-01-20T16:50:27.895Z,100.00
2023-01-20T16:52:55.278Z,100.00
2023-01-20T16:55:23.968Z,100.00
2023-01-20T16:57:51.345Z,100.00
2023-01-20T17:00:20.715Z,100.00
2023-01-20T17:02:53.455Z,100.00
2023-01-20T17:05:25.831Z,100.00
2023-01-20T17:07:57.380Z,100.00
2023-01-20T17:10:29.643Z,100.00
2023-01-20T17:12:58.529Z,100.00
2023-01-20T17:15:27.165Z,100.00
2023-01-20T17:17:58.333Z,100.00
2023-01-20T17:20:27.531Z,100.00
2023-01-20T17:22:55.694Z,100.00
2023-01-20T17:25:23.481Z,100.00
2023-01-20T17:27:50.906Z,100.00
2023-01-20T17:30:18.556Z,100.00
2023-01-20T17:32:48.409Z,100.00
2023-01-20T17:35:17.056Z,100.00
2023-01-20T17:37:45.054Z,100.00
2023-01-20T17:40:13.678Z,100.00
2023-01-20T17:42:41.246Z,100.00
2023-01-20T17:45:09.612Z,100.00
2023-01-20T17:47:36.946Z,100.00
2023-01-20T17:50:05.426Z,100.00
2023-01-20T17:52:32.785Z,100.00
2023-01-20T17:55:00.265Z,100.00
2023-01-20T17:57:28.174Z,100.00
2023-01-20T17:59:55.636Z,100.00
2023-01-20T18:02:23.687Z,100.00
2023-01-20T18:04:51.143Z,100.00
2023-01-20T18:07:18.983Z,100.00
2023-01-20T18:09:46.355Z,100.00
2023-01-20T18:12:14.439Z,100.00
2023-01-20T18:14:41.748Z,100.00
2023-01-20T18:17:09.181Z,100.00
2023-01-20T18:19:36.603Z,100.00
2023-01-20T18:22:06.972Z,100.00
2023-01-20T18:24:34.612Z,100.00
2023-01-20T18:27:01.985Z,100.00
2023-01-20T18:29:30.148Z,100.00
2023-01-20T18:32:00.172Z,100.00
2023-01-20T18:34:27.953Z,100.00
